createdAt,value
2018-12-29T00:00:26.377Z,13.50
2018-12-29T00:02:53.319Z,16.17
2018-12-29T00:05:20.268Z,15.20
2018-12-29T00:07:47.239Z,13.63
2018-12-29T00:10:14.204Z,12.50
2018-12-29T00:12:41.173Z,13.47
2018-12-29T00:15:08.136Z,14.03
2018-12-29T00:17:35.104Z,14.40
2018-12-29T00:20:02.062Z,14.77
2018-12-29T00:22:29.068Z,13.70
2018-12-29T00:24:56.081Z,13.57
2018-12-29T00:27:23.106Z,13.50
2018-12-29T00:29:50.258Z,13.67
2018-12-29T00:32:17.265Z,13.50
2018-12-29T00:34:44.271Z,13.67
2018-12-29T00:37:11.201Z,13.30
2018-12-29T00:39:38.127Z,14.40
2018-12-29T00:42:05.061Z,14.17
2018-12-29T00:44:31.988Z,14.93
2018-12-29T00:46:58.953Z,13.50
2018-12-29T00:49:25.909Z,13.57
2018-12-29T00:51:52.830Z,14.13
2018-12-29T00:54:20.261Z,15.40
2018-12-29T00:56:47.171Z,16.93
2018-12-29T00:59:14.118Z,14.77
2018-12-29T01:01:41.110Z,15.47
2018-12-29T01:04:08.100Z,16.93
2018-12-29T01:06:35.062Z,14.43
2018-12-29T01:09:02.790Z,15.70
2018-12-29T01:11:29.016Z,14.63
2018-12-29T01:13:55.991Z,14.47
2018-12-29T01:16:22.881Z,15.13
2018-12-29T01:18:50.605Z,13.77
2018-12-29T01:21:17.513Z,14.00
2018-12-29T01:23:44.457Z,14.47
2018-12-29T01:26:11.410Z,14.30
2018-12-29T01:28:38.338Z,16.03
2018-12-29T01:31:05.332Z,17.63
2018-12-29T01:33:32.244Z,15.50
2018-12-29T01:35:59.177Z,14.90
2018-12-29T01:38:26.152Z,14.73
2018-12-29T01:40:53.085Z,16.00
2018-12-29T01:43:20.033Z,15.57
2018-12-29T01:45:47.010Z,15.67
2018-12-29T01:48:14.651Z,15.97
2018-12-29T01:50:41.615Z,14.77
2018-12-29T01:53:08.549Z,16.77
2018-12-29T01:55:35.485Z,16.10
2018-12-29T01:58:02.402Z,16.57
2018-12-29T02:00:29.349Z,17.80
2018-12-29T02:02:56.337Z,16.73
2018-12-29T02:05:23.380Z,18.23
2018-12-29T02:07:50.398Z,18.10
2018-12-29T02:10:17.374Z,17.93
2018-12-29T02:12:44.318Z,18.53
2018-12-29T02:15:11.282Z,17.53
2018-12-29T02:17:38.279Z,18.13
2018-12-29T02:20:05.372Z,18.97
2018-12-29T02:22:32.332Z,17.60
2018-12-29T02:24:59.350Z,18.13
2018-12-29T02:27:26.810Z,18.07
2018-12-29T02:29:53.770Z,17.93
2018-12-29T02:32:20.746Z,19.00
2018-12-29T02:34:47.687Z,19.43
2018-12-29T02:37:14.698Z,18.77
2018-12-29T02:39:41.770Z,18.40
2018-12-29T02:42:08.739Z,18.90
2018-12-29T02:44:35.711Z,19.03
2018-12-29T02:47:02.685Z,18.97
2018-12-29T02:49:29.627Z,18.93
2018-12-29T02:51:57.014Z,19.33
2018-12-29T02:54:23.999Z,18.13
2018-12-29T02:56:51.800Z,18.20
2018-12-29T02:59:18.807Z,19.97
2018-12-29T03:01:45.793Z,18.03
2018-12-29T03:04:12.754Z,19.87
2018-12-29T03:06:40.440Z,21.33
2018-12-29T03:09:07.451Z,21.27
2018-12-29T03:11:34.906Z,20.87
2018-12-29T03:14:01.885Z,18.10
2018-12-29T03:16:28.939Z,18.30
2018-12-29T03:18:55.930Z,19.43
2018-12-29T03:21:22.889Z,19.77
2018-12-29T03:23:50.005Z,19.60
2018-12-29T03:26:16.967Z,16.97
2018-12-29T03:28:43.922Z,18.90
2018-12-29T03:31:11.804Z,18.73
2018-12-29T03:33:38.889Z,16.80
2018-12-29T03:36:06.071Z,19.47
2018-12-29T03:38:33.031Z,18.33
2018-12-29T03:41:00.062Z,18.40
2018-12-29T03:43:27.035Z,17.43
2018-12-29T03:45:54.022Z,16.47
2018-12-29T03:48:20.985Z,16.93
2018-12-29T03:50:47.944Z,18.23
2018-12-29T03:53:14.921Z,16.53
2018-12-29T03:55:41.872Z,18.13
2018-12-29T03:58:08.855Z,17.90
2018-12-29T04:00:35.789Z,17.67
2018-12-29T04:03:02.728Z,18.37
2018-12-29T04:05:29.752Z,17.33
2018-12-29T04:07:56.721Z,17.43
2018-12-29T04:10:23.661Z,18.20
2018-12-29T04:12:53.809Z,18.20
2018-12-29T04:15:20.817Z,18.77
2018-12-29T04:17:47.783Z,17.43
2018-12-29T04:20:14.697Z,17.70
2018-12-29T04:22:42.153Z,16.57
2018-12-29T04:25:09.065Z,17.17
2018-12-29T04:27:36.010Z,20.20
2018-12-29T04:30:03.110Z,17.50
2018-12-29T04:32:30.032Z,17.73
2018-12-29T04:34:56.952Z,17.37
2018-12-29T04:37:23.872Z,19.10
2018-12-29T04:39:51.518Z,17.93
2018-12-29T04:42:18.479Z,17.47
2018-12-29T04:44:45.451Z,18.87
2018-12-29T04:47:12.395Z,18.07
2018-12-29T04:49:39.374Z,17.60
2018-12-29T04:52:07.871Z,20.50
2018-12-29T04:54:33.331Z,20.20
2018-12-29T04:57:00.307Z,20.00
2018-12-29T04:59:27.260Z,17.67
2018-12-29T05:01:54.207Z,18.27
2018-12-29T05:04:21.177Z,18.30
2018-12-29T05:06:48.130Z,19.17
2018-12-29T05:09:15.589Z,18.40
2018-12-29T05:11:42.519Z,19.60
2018-12-29T05:14:09.519Z,18.40
2018-12-29T05:16:36.463Z,20.60
2018-12-29T05:19:03.412Z,17.83
2018-12-29T05:21:30.430Z,18.93
2018-12-29T05:23:57.416Z,18.23
2018-12-29T05:26:24.403Z,18.57
2018-12-29T05:28:52.112Z,17.47
2018-12-29T05:31:19.090Z,17.90
2018-12-29T05:33:46.033Z,19.10
2018-12-29T05:36:12.978Z,17.90
2018-12-29T05:38:39.921Z,19.07
2018-12-29T05:41:06.869Z,19.07
2018-12-29T05:43:33.815Z,17.30
2018-12-29T05:46:00.777Z,21.00
2018-12-29T05:48:27.704Z,17.83
2018-12-29T05:50:54.675Z,17.07
2018-12-29T05:53:21.627Z,17.83
2018-12-29T05:55:48.588Z,19.03
2018-12-29T05:58:15.592Z,18.70
2018-12-29T06:00:42.638Z,17.17
2018-12-29T06:03:09.610Z,18.30
2018-12-29T06:05:36.541Z,18.03
2018-12-29T06:08:03.530Z,18.03
2018-12-29T06:10:30.498Z,18.17
2018-12-29T06:12:57.988Z,17.20
2018-12-29T06:15:24.974Z,17.43
2018-12-29T06:17:51.967Z,16.33
2018-12-29T06:20:18.898Z,17.07
2018-12-29T06:22:45.930Z,17.17
2018-12-29T06:25:12.891Z,17.93
2018-12-29T06:27:39.829Z,18.17
2018-12-29T06:30:07.467Z,17.07
2018-12-29T06:32:34.430Z,16.27
2018-12-29T06:35:01.387Z,17.00
2018-12-29T06:37:28.364Z,16.77
2018-12-29T06:39:55.333Z,17.13
2018-12-29T06:42:22.461Z,16.80
2018-12-29T06:44:49.539Z,17.73
2018-12-29T06:47:16.483Z,16.87
2018-12-29T06:49:43.422Z,19.03
2018-12-29T06:52:10.346Z,18.17
2018-12-29T06:54:37.312Z,16.73
2018-12-29T06:57:04.246Z,16.67
2018-12-29T06:59:31.216Z,16.07
2018-12-29T07:01:58.198Z,17.47
2018-12-29T07:09:19.568Z,16.00
2018-12-29T07:11:46.521Z,18.90
2018-12-29T07:14:13.533Z,19.67
2018-12-29T07:16:42.410Z,19.93
2018-12-29T07:19:08.383Z,20.90
2018-12-29T07:21:35.354Z,18.47
2018-12-29T07:24:02.265Z,20.03
2018-12-29T07:26:29.207Z,18.77
2018-12-29T07:28:56.153Z,19.97
2018-12-29T07:31:23.084Z,18.90
2018-12-29T07:33:50.213Z,20.07
2018-12-29T07:36:17.194Z,17.80
2018-12-29T07:38:44.142Z,18.23
2018-12-29T07:41:11.188Z,18.37
2018-12-29T07:43:38.138Z,20.60
2018-12-29T07:46:05.179Z,20.03
2018-12-29T07:48:32.992Z,19.93
2018-12-29T07:51:03.814Z,19.27
2018-12-29T07:53:39.453Z,20.90
2018-12-29T07:56:13.809Z,18.93
2018-12-29T07:58:40.772Z,20.13
2018-12-29T08:01:07.770Z,21.60
2018-12-29T08:03:34.768Z,19.47
2018-12-29T08:06:01.737Z,19.43
2018-12-29T08:08:28.796Z,19.53
2018-12-29T08:10:55.718Z,20.37
2018-12-29T08:13:23.998Z,20.83
2018-12-29T08:15:51.840Z,18.60
2018-12-29T08:18:18.782Z,18.20
2018-12-29T08:20:46.249Z,19.77
2018-12-29T08:23:13.278Z,17.77
2018-12-29T08:25:40.193Z,16.10
2018-12-29T08:28:07.090Z,16.70
2018-12-29T08:30:34.000Z,16.67
2018-12-29T08:33:00.907Z,17.03
2018-12-29T08:35:27.847Z,17.47
2018-12-29T08:37:54.741Z,17.50
2018-12-29T08:40:21.779Z,20.87
2018-12-29T08:42:48.805Z,17.13
2018-12-29T08:45:15.771Z,16.67
2018-12-29T08:47:42.715Z,17.03
2018-12-29T08:50:13.144Z,17.23
2018-12-29T08:52:36.738Z,16.83
2018-12-29T08:55:03.754Z,16.33
2018-12-29T08:57:30.776Z,17.57
2018-12-29T08:59:57.740Z,16.37
2018-12-29T09:02:25.406Z,17.33
2018-12-29T09:04:52.371Z,17.43
2018-12-29T09:07:19.382Z,23.27
2018-12-29T09:09:46.376Z,18.17
2018-12-29T09:12:13.337Z,19.40
2018-12-29T09:14:42.487Z,19.60
2018-12-29T09:17:12.182Z,17.13
2018-12-29T09:19:36.526Z,18.67
2018-12-29T09:22:03.587Z,17.77
2018-12-29T09:24:30.577Z,15.97
2018-12-29T09:26:57.508Z,18.00
2018-12-29T09:29:24.491Z,16.60
2018-12-29T09:31:51.558Z,15.73
2018-12-29T09:34:22.383Z,16.33
2018-12-29T09:36:45.955Z,15.70
2018-12-29T09:39:12.967Z,14.47
2018-12-29T09:41:40.801Z,14.87
2018-12-29T09:44:07.769Z,15.23
2018-12-29T09:46:35.401Z,12.87
2018-12-29T09:49:02.542Z,13.57
2018-12-29T09:51:29.582Z,13.87
2018-12-29T09:53:56.595Z,15.53
2018-12-29T09:56:23.601Z,14.73
2018-12-29T09:58:50.707Z,13.53
2018-12-29T10:01:18.345Z,14.60
2018-12-29T10:03:45.277Z,14.30
2018-12-29T10:06:12.254Z,14.30
2018-12-29T10:08:39.145Z,15.20
2018-12-29T10:11:06.163Z,14.37
2018-12-29T10:13:33.147Z,14.20
2018-12-29T10:16:00.181Z,14.17
2018-12-29T10:18:27.199Z,17.03
2018-12-29T10:20:54.144Z,16.07
2018-12-29T10:23:21.196Z,15.27
2018-12-29T10:25:48.146Z,16.03
2018-12-29T10:28:15.081Z,16.20
2018-12-29T10:30:42.060Z,16.63
2018-12-29T10:33:09.007Z,15.37
2018-12-29T10:35:36.010Z,15.47
2018-12-29T10:38:03.005Z,14.97
2018-12-29T10:40:30.051Z,14.13
2018-12-29T10:42:57.027Z,15.67
2018-12-29T10:45:23.969Z,15.37
2018-12-29T10:47:51.443Z,16.27
2018-12-29T10:50:18.451Z,17.10
2018-12-29T10:52:46.092Z,17.47
2018-12-29T10:55:13.049Z,19.57
2018-12-29T10:57:39.953Z,18.93
2018-12-29T11:00:08.263Z,18.87
2018-12-29T11:02:35.157Z,17.07
2018-12-29T11:05:02.096Z,16.90
2018-12-29T11:07:29.083Z,16.40
2018-12-29T11:09:56.082Z,15.17
2018-12-29T11:12:23.033Z,16.23
2018-12-29T11:14:50.000Z,14.97
2018-12-29T11:17:17.072Z,15.27
2018-12-29T11:19:44.047Z,16.27
2018-12-29T11:22:11.097Z,16.80
2018-12-29T11:24:38.035Z,15.80
2018-12-29T11:27:05.062Z,15.90
2018-12-29T11:29:32.198Z,16.60
2018-12-29T11:31:59.759Z,16.77
2018-12-29T11:34:26.810Z,15.80
2018-12-29T11:36:53.750Z,16.23
2018-12-29T11:39:20.682Z,15.87
2018-12-29T11:41:47.843Z,15.63
2018-12-29T11:44:14.811Z,16.10
2018-12-29T11:46:41.799Z,15.53
2018-12-29T11:49:08.875Z,14.00
2018-12-29T11:51:35.902Z,15.43
2018-12-29T11:54:02.922Z,14.47
2018-12-29T11:56:29.977Z,15.23
2018-12-29T11:58:57.019Z,16.10
2018-12-29T12:01:24.033Z,16.63
2018-12-29T12:03:51.046Z,17.43
2018-12-29T12:06:17.999Z,18.63
2018-12-29T12:08:45.014Z,16.03
2018-12-29T12:11:12.060Z,15.77
2018-12-29T12:13:39.044Z,15.40
2018-12-29T12:16:06.047Z,15.57
2018-12-29T12:18:33.014Z,15.13
2018-12-29T12:21:00.110Z,16.10
2018-12-29T12:23:27.132Z,17.00
2018-12-29T12:25:54.168Z,17.70
2018-12-29T12:28:21.797Z,17.63
2018-12-29T12:30:48.804Z,18.23
2018-12-29T12:33:16.335Z,15.63
2018-12-29T12:40:37.545Z,13.63
2018-12-29T12:43:04.599Z,15.40
2018-12-29T12:45:31.568Z,15.80
2018-12-29T12:48:04.994Z,15.17
2018-12-29T12:50:25.612Z,16.00
2018-12-29T12:52:52.652Z,17.30
2018-12-29T12:55:19.719Z,16.43
2018-12-29T12:57:46.674Z,16.83
2018-12-29T13:00:13.696Z,18.50
2018-12-29T13:02:40.636Z,17.47
2018-12-29T13:05:08.147Z,18.17
2018-12-29T13:07:35.144Z,18.13
2018-12-29T13:10:02.161Z,17.67
2018-12-29T13:12:29.098Z,15.70
2018-12-29T13:14:56.011Z,15.03
2018-12-29T13:17:23.006Z,14.70
2018-12-29T13:19:49.987Z,16.07
2018-12-29T13:22:16.950Z,15.43
2018-12-29T13:24:43.951Z,14.93
2018-12-29T13:27:11.040Z,14.50
2018-12-29T13:29:38.057Z,14.50
2018-12-29T13:32:05.932Z,14.43
2018-12-29T13:34:32.926Z,14.27
2018-12-29T13:37:00.581Z,14.27
2018-12-29T13:39:27.645Z,14.20
2018-12-29T13:41:54.639Z,15.67
2018-12-29T13:44:21.627Z,13.57
2018-12-29T13:46:48.723Z,16.77
2018-12-29T13:49:15.703Z,13.90
2018-12-29T13:51:42.777Z,14.47
2018-12-29T13:54:09.830Z,16.07
2018-12-29T13:56:36.950Z,14.83
2018-12-29T13:59:03.961Z,16.63
2018-12-29T14:01:31.021Z,16.83
2018-12-29T14:03:58.013Z,15.60
2018-12-29T14:06:24.950Z,14.37
2018-12-29T14:08:51.926Z,13.97
2018-12-29T14:11:18.851Z,16.87
2018-12-29T14:13:45.775Z,13.97
2018-12-29T14:16:12.719Z,12.97
2018-12-29T14:18:39.670Z,13.73
2018-12-29T14:21:06.698Z,14.63
2018-12-29T14:23:33.782Z,13.37
2018-12-29T14:26:01.010Z,15.60
2018-12-29T14:28:28.061Z,14.80
2018-12-29T14:30:55.027Z,14.00
2018-12-29T14:33:22.233Z,14.17
2018-12-29T14:35:49.181Z,13.57
2018-12-29T14:38:16.213Z,14.83
2018-12-29T14:40:43.269Z,14.13
2018-12-29T14:43:10.237Z,14.93
2018-12-29T14:45:37.225Z,14.80
2018-12-29T14:48:04.187Z,14.50
2018-12-29T14:50:31.397Z,14.70
2018-12-29T14:52:58.478Z,12.97
2018-12-29T14:55:25.468Z,13.80
2018-12-29T14:57:52.446Z,13.60
2018-12-29T15:00:19.486Z,15.70
2018-12-29T15:02:46.492Z,14.47
2018-12-29T15:05:13.495Z,15.00
2018-12-29T15:07:40.461Z,15.13
2018-12-29T15:10:07.461Z,13.77
2018-12-29T15:12:34.511Z,13.93
2018-12-29T15:15:01.530Z,14.20
2018-12-29T15:17:28.761Z,16.30
2018-12-29T15:19:55.811Z,14.17
2018-12-29T15:22:22.835Z,14.43
2018-12-29T15:24:49.911Z,13.77
2018-12-29T15:27:16.862Z,14.00
2018-12-29T15:29:43.923Z,13.63
2018-12-29T15:32:10.912Z,16.17
2018-12-29T15:34:38.036Z,14.67
2018-12-29T15:37:05.701Z,13.80
2018-12-29T15:39:32.769Z,13.73
2018-12-29T15:41:59.844Z,14.73
2018-12-29T15:44:26.843Z,15.60
2018-12-29T15:46:53.870Z,14.63
2018-12-29T15:49:20.892Z,15.17
2018-12-29T15:51:47.876Z,15.97
2018-12-29T15:54:14.860Z,15.03
2018-12-29T15:56:42.569Z,15.97
2018-12-29T15:59:09.598Z,15.50
2018-12-29T16:01:39.754Z,14.77
2018-12-29T16:04:05.419Z,15.20
2018-12-29T16:06:32.417Z,14.87
2018-12-29T16:08:59.611Z,16.50
2018-12-29T16:11:27.291Z,16.13
2018-12-29T16:13:53.665Z,14.73
2018-12-29T16:16:20.619Z,12.83
2018-12-29T16:18:47.555Z,13.80
2018-12-29T16:21:14.692Z,15.13
2018-12-29T16:23:41.669Z,13.90
2018-12-29T16:26:12.648Z,14.47
2018-12-29T16:28:35.795Z,14.53
2018-12-29T16:31:02.655Z,12.93
2018-12-29T16:33:29.682Z,13.43
2018-12-29T16:35:56.795Z,13.80
2018-12-29T16:38:23.867Z,14.00
2018-12-29T16:40:57.675Z,12.63
2018-12-29T16:43:17.946Z,12.70
2018-12-29T16:45:45.152Z,12.00
2018-12-29T16:48:12.211Z,12.17
2018-12-29T16:50:39.187Z,12.30
2018-12-29T16:53:06.174Z,11.23
2018-12-29T16:55:33.125Z,11.93
2018-12-29T16:58:00.781Z,12.37
2018-12-29T17:00:27.709Z,12.83
2018-12-29T17:02:54.642Z,15.20
2018-12-29T17:05:21.621Z,11.77
2018-12-29T17:07:49.102Z,11.83
2018-12-29T17:10:16.093Z,11.70
2018-12-29T17:12:43.066Z,12.30
2018-12-29T17:15:10.088Z,11.03
2018-12-29T17:17:37.224Z,10.07
2018-12-29T17:20:04.311Z,11.13
2018-12-29T17:22:31.307Z,9.93
2018-12-29T17:24:58.321Z,11.40
2018-12-29T17:27:25.318Z,11.73
2018-12-29T17:29:52.328Z,10.27
2018-12-29T17:32:19.445Z,11.67
2018-12-29T17:34:46.359Z,11.30
2018-12-29T17:37:13.317Z,13.90
2018-12-29T17:39:40.394Z,11.83
2018-12-29T17:42:07.584Z,10.63
2018-12-29T17:44:34.517Z,10.40
2018-12-29T17:47:01.467Z,11.07
2018-12-29T17:49:28.406Z,9.80
2018-12-29T17:51:55.638Z,10.00
2018-12-29T17:54:22.644Z,9.40
2018-12-29T17:56:49.648Z,10.17
2018-12-29T17:59:16.616Z,10.27
2018-12-29T18:01:43.610Z,10.00
2018-12-29T18:04:10.622Z,10.13
2018-12-29T18:06:37.585Z,9.07
2018-12-29T18:09:05.442Z,10.00
2018-12-29T18:11:32.418Z,8.33
2018-12-29T18:13:59.351Z,8.37
2018-12-29T18:16:26.357Z,7.77
2018-12-29T18:18:53.517Z,7.67
2018-12-29T18:21:20.389Z,8.43
2018-12-29T18:23:47.339Z,8.57
2018-12-29T18:26:14.407Z,10.10
2018-12-29T18:28:41.412Z,10.27
2018-12-29T18:31:08.419Z,11.40
2018-12-29T18:33:37.373Z,12.30
2018-12-29T18:36:02.395Z,10.17
2018-12-29T18:38:29.530Z,9.67
2018-12-29T18:40:56.589Z,9.70
2018-12-29T18:43:23.571Z,9.30
2018-12-29T18:45:50.538Z,8.53
2018-12-29T18:48:17.569Z,8.90
2018-12-29T18:50:44.488Z,9.10
2018-12-29T18:53:11.462Z,11.50
2018-12-29T18:55:38.455Z,12.03
2018-12-29T18:58:05.481Z,9.40
2018-12-29T19:00:32.578Z,9.70
2018-12-29T19:03:00.250Z,9.20
2018-12-29T19:05:27.226Z,8.80
2018-12-29T19:07:54.189Z,9.20
2018-12-29T19:10:21.187Z,8.33
2018-12-29T19:12:48.177Z,9.03
2018-12-29T19:15:15.102Z,8.97
2018-12-29T19:17:42.162Z,8.03
2018-12-29T19:20:09.170Z,8.77
2018-12-29T19:22:36.170Z,8.97
2018-12-29T19:25:03.117Z,8.17
2018-12-29T19:27:30.167Z,9.10
2018-12-29T19:29:57.160Z,8.07
2018-12-29T19:32:24.196Z,8.60
2018-12-29T19:34:51.274Z,11.10
2018-12-29T19:37:18.241Z,13.60
2018-12-29T19:39:45.233Z,9.20
2018-12-29T19:42:12.234Z,9.97
2018-12-29T19:44:39.306Z,10.97
2018-12-29T19:47:06.295Z,10.77
2018-12-29T19:49:33.313Z,10.40
2018-12-29T19:52:00.467Z,10.83
2018-12-29T19:54:27.507Z,10.60
2018-12-29T19:56:54.469Z,12.30
2018-12-29T19:59:21.494Z,11.80
2018-12-29T20:01:48.442Z,12.47
2018-12-29T20:04:15.456Z,12.20
2018-12-29T20:06:42.811Z,13.27
2018-12-29T20:09:09.845Z,13.10
2018-12-29T20:11:36.856Z,12.73
2018-12-29T20:14:03.827Z,12.03
2018-12-29T20:16:30.774Z,12.83
2018-12-29T20:18:57.763Z,12.90
2018-12-29T20:21:24.736Z,14.57
2018-12-29T20:23:51.932Z,13.37
2018-12-29T20:26:18.972Z,14.23
2018-12-29T20:28:45.970Z,14.33
2018-12-29T20:31:12.981Z,14.03
2018-12-29T20:33:39.928Z,14.07
2018-12-29T20:36:07.464Z,13.90
2018-12-29T20:38:34.493Z,13.30
2018-12-29T20:41:01.461Z,12.17
2018-12-29T20:43:28.459Z,13.17
2018-12-29T20:45:55.494Z,15.10
2018-12-29T20:48:22.449Z,14.00
2018-12-29T20:50:49.471Z,14.37
2018-12-29T20:53:16.561Z,15.17
2018-12-29T20:55:43.564Z,13.40
2018-12-29T20:58:10.530Z,13.67
2018-12-29T21:00:37.586Z,12.77
2018-12-29T21:03:04.523Z,12.30
2018-12-29T21:05:31.494Z,13.30
2018-12-29T21:07:58.532Z,12.30
2018-12-29T21:10:25.529Z,11.37
2018-12-29T21:12:52.633Z,12.97
2018-12-29T21:15:19.606Z,13.47
2018-12-29T21:17:46.593Z,12.10
2018-12-29T21:20:17.328Z,11.90
2018-12-29T21:22:40.558Z,11.23
2018-12-29T21:25:07.589Z,12.03
2018-12-29T21:27:34.621Z,12.63
2018-12-29T21:30:01.641Z,14.20
2018-12-29T21:32:28.623Z,11.47
2018-12-29T21:34:55.624Z,12.87
2018-12-29T21:37:22.568Z,12.47
2018-12-29T21:39:49.500Z,12.63
2018-12-29T21:42:16.526Z,11.40
2018-12-29T21:44:43.498Z,11.20
2018-12-29T21:47:10.501Z,12.73
2018-12-29T21:49:37.492Z,13.97
2018-12-29T21:52:04.480Z,14.90
2018-12-29T21:54:31.437Z,13.43
2018-12-29T21:56:58.378Z,12.03
2018-12-29T21:59:25.356Z,12.13
2018-12-29T22:01:52.489Z,11.43
2018-12-29T22:04:19.488Z,11.23
2018-12-29T22:06:46.520Z,11.27
2018-12-29T22:09:13.767Z,11.63
2018-12-29T22:11:40.769Z,11.63
2018-12-29T22:14:07.791Z,10.83
2018-12-29T22:16:34.811Z,11.53
2018-12-29T22:19:01.838Z,11.50
2018-12-29T22:21:28.834Z,11.10
2018-12-29T22:23:55.766Z,12.33
2018-12-29T22:26:22.797Z,12.30
2018-12-29T22:28:49.862Z,12.37
2018-12-29T22:31:17.450Z,12.40
2018-12-29T22:33:44.438Z,12.27
2018-12-29T22:36:11.513Z,11.47
2018-12-29T22:38:38.509Z,10.73
2018-12-29T22:41:05.917Z,13.53
2018-12-29T22:43:32.926Z,11.90
2018-12-29T22:45:59.925Z,10.80
2018-12-29T22:48:26.970Z,8.43
2018-12-29T22:50:53.944Z,17.23
2018-12-29T22:53:20.949Z,8.77
2018-12-29T22:55:47.926Z,9.30
2018-12-29T22:58:14.931Z,8.77
2018-12-29T23:00:43.086Z,8.43
2018-12-29T23:03:10.052Z,8.80
2018-12-29T23:05:37.051Z,8.90
2018-12-29T23:08:04.124Z,8.27
2018-12-29T23:10:31.106Z,8.93
2018-12-29T23:12:58.113Z,7.73
2018-12-29T23:15:25.078Z,8.80
2018-12-29T23:17:52.141Z,9.33
2018-12-29T23:20:19.154Z,9.00
2018-12-29T23:22:46.130Z,8.17
2018-12-29T23:25:13.125Z,7.67
2018-12-29T23:27:40.122Z,8.70
2018-12-29T23:30:07.112Z,8.70
2018-12-29T23:32:34.116Z,7.83
2018-12-29T23:35:01.029Z,8.67
2018-12-29T23:37:28.024Z,8.97
2018-12-29T23:39:55.067Z,8.23
2018-12-29T23:42:22.102Z,8.60
2018-12-29T23:44:49.814Z,8.20
2018-12-29T23:47:16.815Z,8.30
2018-12-29T23:49:43.916Z,8.43
2018-12-29T23:52:10.914Z,9.20
2018-12-29T23:54:37.896Z,8.50
2018-12-29T23:57:04.908Z,8.33
2018-12-29T23:59:31.954Z,7.63
